Time;durP1;ratioP1;P1;durP2;ratioP2;P2;SDS_P1;SDS_P2;PMS_P1;PMS_P2;Temp;Humidity;BMP_temperature;BMP_pressure;BME280_temperature;BME280_humidity;BME280_pressure;Samples;Min_cycle;Max_cycle;Signal;HPM_P1;HPM_P2
2022/01/31 00:00:15;;;;;;;7.82;2.30;;;0.70;99.90;;;-0.17;100.00;97645.88;5015932;28;20434;-47
2022/01/31 00:02:44;;;;;;;11.20;3.10;;;0.70;99.90;;;-0.30;100.00;97612.03;5019398;28;20391;-45
2022/01/31 00:05:10;;;;;;;11.10;3.10;;;0.80;99.90;;;-0.07;100.00;97660.63;5014357;28;20037;-43
2022/01/31 00:07:37;;;;;;;12.27;2.83;;;0.80;99.90;;;-0.04;100.00;97645.09;5017476;28;20033;-43
2022/01/31 00:10:07;;;;;;;7.25;2.88;;;0.80;99.90;;;-0.01;100.00;97640.81;5011246;28;20034;-43
2022/01/31 00:12:43;;;;;;;11.10;3.17;;;0.90;99.90;;;0.02;100.00;97632.22;5018020;28;20041;-42
2022/01/31 00:15:09;;;;;;;12.50;3.05;;;0.90;99.90;;;0.08;100.00;97637.44;5017909;28;20025;-45
2022/01/31 00:17:35;;;;;;;11.23;3.55;;;0.90;99.90;;;0.15;100.00;97635.78;5018803;28;20036;-42
2022/01/31 00:20:01;;;;;;;10.07;2.55;;;1.00;99.90;;;0.22;100.00;97627.19;5017287;28;20028;-43
2022/01/31 00:22:26;;;;;;;12.45;3.05;;;1.10;99.90;;;0.28;100.00;97626.34;5019801;28;20037;-43
2022/01/31 00:24:52;;;;;;;11.52;3.33;;;1.10;99.90;;;0.30;100.00;97628.09;5011408;28;22125;-43
2022/01/31 00:27:18;;;;;;;9.60;2.97;;;1.10;99.90;;;0.36;100.00;97614.31;5017755;28;20033;-45
2022/01/31 00:29:43;;;;;;;11.27;3.72;;;1.20;99.90;;;0.37;100.00;97603.91;5016344;28;20041;-43
2022/01/31 00:32:09;;;;;;;13.57;3.30;;;1.30;99.90;;;0.43;100.00;97591.84;5019209;28;20421;-44
2022/01/31 00:34:35;;;;;;;10.20;3.08;;;1.30;99.90;;;0.48;100.00;97585.81;5015535;28;20121;-47
2022/01/31 00:37:01;;;;;;;10.30;2.85;;;1.40;99.90;;;0.48;100.00;97595.34;5013652;28;20037;-41
2022/01/31 00:39:26;;;;;;;12.85;3.53;;;1.40;99.90;;;0.49;100.00;97599.69;5017338;28;20074;-45
2022/01/31 00:41:52;;;;;;;13.73;2.70;;;1.40;99.90;;;0.53;100.00;97594.50;5016450;28;20268;-40
2022/01/31 00:44:22;;;;;;;13.38;3.25;;;1.40;99.90;;;0.55;100.00;97610.09;5014932;28;20030;-43
2022/01/31 00:46:59;;;;;;;12.35;3.38;;;1.40;99.90;;;0.61;100.00;97598.88;5016070;28;20056;-45
2022/01/31 00:51:54;;;;;;;13.13;2.78;;;1.60;99.90;;;0.76;100.00;97552.25;5014177;28;20029;-41
2022/01/31 00:54:21;;;;;;;8.73;2.60;;;1.60;99.90;;;0.86;100.00;97564.41;5016228;28;20032;-45
2022/01/31 00:56:48;;;;;;;9.80;2.90;;;1.70;99.90;;;0.93;100.00;97560.97;5017425;28;20388;-44
2022/01/31 00:59:14;;;;;;;14.80;4.00;;;1.80;99.90;;;1.01;100.00;97536.75;5016704;28;20021;-44
2022/01/31 01:01:39;;;;;;;9.13;3.67;;;1.80;99.90;;;1.05;100.00;97528.09;5014075;28;20038;-41
2022/01/31 01:04:05;;;;;;;11.27;3.10;;;1.90;99.90;;;1.02;100.00;97528.94;5013539;28;20038;-47
2022/01/31 01:06:31;;;;;;;15.90;3.70;;;1.90;99.90;;;0.99;100.00;97525.47;5016641;28;20052;-44
2022/01/31 01:08:57;;;;;;;14.02;3.40;;;1.90;99.90;;;1.02;100.00;97528.09;5017594;28;20499;-39
2022/01/31 01:11:23;;;;;;;11.27;2.95;;;1.90;99.90;;;1.02;100.00;97505.56;5015796;28;20034;-47
2022/01/31 01:13:49;;;;;;;14.73;4.15;;;1.90;99.90;;;1.07;100.00;97509.06;5015629;28;20068;-44
2022/01/31 01:16:14;;;;;;;16.63;3.13;;;1.90;99.90;;;1.09;100.00;97509.06;5013272;28;20056;-44
2022/01/31 01:18:40;;;;;;;9.57;3.35;;;2.00;99.90;;;1.08;100.00;97495.22;5013146;28;20030;-42
2022/01/31 01:21:06;;;;;;;9.98;3.17;;;2.00;99.90;;;1.10;100.00;97505.63;5013456;28;20487;-46
2022/01/31 01:23:31;;;;;;;16.50;3.80;;;1.90;99.90;;;1.09;100.00;97504.72;5015346;28;21525;-44
2022/01/31 01:25:57;;;;;;;10.50;3.30;;;2.00;99.90;;;1.13;100.00;97510.78;5017451;28;20032;-47
2022/01/31 01:28:25;;;;;;;12.77;3.13;;;2.00;99.90;;;1.13;100.00;97492.59;5016212;28;20038;-42
2022/01/31 01:30:50;;;;;;;13.77;3.80;;;2.00;99.90;;;1.07;100.00;97457.09;5014796;28;20034;-42
2022/01/31 01:33:22;;;;;;;13.00;3.42;;;2.00;99.90;;;1.18;100.00;97438.06;5018130;28;20491;-44
2022/01/31 01:35:50;;;;;;;13.10;3.50;;;2.00;99.90;;;1.09;100.00;97446.72;5018710;28;20036;-44
2022/01/31 01:38:18;;;;;;;13.90;3.55;;;2.00;99.90;;;1.09;100.00;97438.94;5018658;28;20029;-45
2022/01/31 01:40:47;;;;;;;10.02;2.75;;;2.00;99.90;;;1.12;100.00;97436.34;5018434;28;20401;-46
2022/01/31 01:43:15;;;;;;;8.55;3.25;;;2.00;99.90;;;1.12;100.00;97439.81;5020148;28;20055;-42
2022/01/31 01:45:42;;;;;;;8.55;2.92;;;2.00;99.90;;;1.12;100.00;97432.00;5019325;28;20124;-44
2022/01/31 01:48:10;;;;;;;13.05;3.30;;;2.00;99.90;;;1.13;100.00;97406.88;5017393;28;20126;-45
2022/01/31 01:50:39;;;;;;;9.40;3.13;;;2.00;99.90;;;1.16;100.00;97393.91;5019654;28;20040;-46
2022/01/31 01:53:06;;;;;;;10.93;3.08;;;2.00;99.90;;;1.15;100.00;97345.44;5019950;28;20480;-46
2022/01/31 01:55:33;;;;;;;14.70;3.40;;;2.00;99.90;;;1.18;100.00;97323.78;5017149;28;20088;-45
2022/01/31 01:57:58;;;;;;;8.70;2.92;;;2.00;99.90;;;1.22;100.00;97331.56;5013406;28;20048;-45
2022/01/31 02:00:27;;;;;;;16.17;2.90;;;2.10;99.90;;;1.26;100.00;97307.31;5022737;28;20033;-46
2022/01/31 02:02:54;;;;;;;11.27;3.30;;;2.10;99.90;;;1.28;100.00;97312.50;5018372;28;20034;-45
2022/01/31 02:05:21;;;;;;;9.68;2.90;;;2.10;99.90;;;1.28;100.00;97304.72;5015123;28;20033;-45
2022/01/31 02:07:47;;;;;;;12.82;3.30;;;2.10;99.90;;;1.30;100.00;97288.25;5013851;28;20034;-45
2022/01/31 02:10:15;;;;;;;14.82;3.22;;;2.20;99.90;;;1.38;100.00;97292.56;5020287;28;20040;-42
2022/01/31 02:12:47;;;;;;;8.70;2.65;;;2.20;99.90;;;1.34;100.00;97260.53;5015050;28;20037;-44
2022/01/31 02:15:15;;;;;;;10.15;3.05;;;2.20;99.90;;;1.34;100.00;97250.13;5018886;28;20128;-46
2022/01/31 02:17:41;;;;;;;8.07;2.85;;;2.10;99.90;;;1.31;100.00;97271.81;5016405;28;20053;-47
2022/01/31 02:20:10;;;;;;;14.15;3.00;;;2.20;99.90;;;1.26;100.00;97268.34;5017073;28;20121;-44
2022/01/31 02:22:36;;;;;;;8.93;2.70;;;2.20;99.90;;;1.31;100.00;97256.22;5017457;28;20029;-42
2022/01/31 02:25:04;;;;;;;7.07;2.60;;;2.10;99.90;;;1.32;100.00;97246.69;5018589;28;20499;-44
2022/01/31 02:27:34;;;;;;;11.90;2.90;;;2.20;99.90;;;1.32;100.00;97237.13;5017048;28;20100;-47
2022/01/31 02:30:00;;;;;;;8.60;2.53;;;2.20;99.90;;;1.36;100.00;97234.53;5016929;28;20041;-46
2022/01/31 02:32:26;;;;;;;9.88;3.00;;;2.20;99.90;;;1.31;100.00;97248.41;5018009;28;20043;-43
2022/01/31 02:34:52;;;;;;;9.82;2.80;;;2.20;99.90;;;1.33;100.00;97241.47;5017233;28;20026;-45
2022/01/31 02:37:19;;;;;;;10.05;2.90;;;2.20;99.90;;;1.35;100.00;97238.88;5018765;28;20065;-41
2022/01/31 02:39:46;;;;;;;7.22;2.50;;;2.20;99.90;;;1.39;100.00;97235.41;5014767;28;20026;-43
2022/01/31 02:42:13;;;;;;;16.15;3.20;;;2.20;99.90;;;1.40;100.00;97250.13;5014669;28;20499;-45
2022/01/31 02:44:44;;;;;;;9.52;2.95;;;2.20;99.90;;;1.34;100.00;97240.59;5017148;28;20037;-45
2022/01/31 02:47:13;;;;;;;12.90;2.80;;;2.20;99.90;;;1.38;100.00;97227.59;5017131;28;20116;-44
2022/01/31 02:52:20;;;;;;;7.95;2.97;;;2.20;99.90;;;1.25;100.00;97188.66;5021085;28;20034;-46
2022/01/31 02:54:46;;;;;;;9.25;2.88;;;2.20;99.90;;;1.24;100.00;97186.94;5017396;28;20466;-45
2022/01/31 02:57:13;;;;;;;8.95;2.97;;;2.10;99.90;;;1.24;100.00;97186.94;5014178;28;20491;-44
2022/01/31 02:59:38;;;;;;;15.63;3.30;;;2.10;99.90;;;1.16;100.00;97148.88;5015988;28;20111;-45
2022/01/31 03:02:05;;;;;;;10.43;3.30;;;2.10;99.90;;;1.08;100.00;97125.53;5015909;28;20483;-45
2022/01/31 03:04:31;;;;;;;10.75;2.97;;;2.00;99.90;;;1.14;100.00;97126.34;5015387;28;20775;-47
2022/01/31 03:06:57;;;;;;;11.60;3.92;;;2.00;99.90;;;1.14;100.00;97136.75;5015397;28;20041;-47
2022/01/31 03:09:23;;;;;;;9.93;3.25;;;2.00;99.90;;;1.10;100.00;97131.59;5014240;28;20132;-44
2022/01/31 03:11:50;;;;;;;13.30;3.20;;;2.00;99.90;;;1.17;100.00;97133.28;5014703;28;20120;-46
2022/01/31 03:14:16;;;;;;;8.77;3.30;;;2.00;99.90;;;1.19;100.00;97141.94;5017258;28;20030;-42
2022/01/31 03:16:44;;;;;;;13.32;3.40;;;2.00;99.90;;;1.14;100.00;97113.38;5011928;28;20096;-44
2022/01/31 03:19:10;;;;;;;13.55;3.10;;;2.00;99.90;;;1.23;100.00;97111.63;5012862;28;20032;-45
2022/01/31 03:21:37;;;;;;;8.65;2.90;;;2.10;99.90;;;1.23;100.00;97098.63;5015466;28;20482;-44
2022/01/31 03:24:04;;;;;;;12.27;2.90;;;2.10;99.90;;;1.24;100.00;97082.16;5019137;28;20037;-44
2022/01/31 03:26:30;;;;;;;9.77;3.05;;;2.10;99.90;;;1.24;100.00;97083.03;5015700;28;20036;-45
2022/01/31 03:28:56;;;;;;;6.82;2.70;;;2.10;99.90;;;1.23;100.00;97060.50;5019188;28;20037;-44
2022/01/31 03:31:22;;;;;;;12.55;3.22;;;2.10;99.90;;;1.25;100.00;97061.38;5016064;28;20084;-40
2022/01/31 03:33:50;;;;;;;8.75;3.00;;;2.10;99.90;;;1.27;100.00;97049.22;5015623;28;20034;-44
2022/01/31 03:36:16;;;;;;;8.35;3.00;;;2.10;99.90;;;1.28;100.00;97035.38;5020289;28;20025;-44
2022/01/31 03:38:42;;;;;;;8.07;2.90;;;2.10;99.90;;;1.30;100.00;97024.97;5016004;28;20462;-43
2022/01/31 03:41:09;;;;;;;7.70;2.78;;;2.10;99.90;;;1.29;100.00;96992.94;5015369;28;20029;-46
2022/01/31 03:43:35;;;;;;;9.27;2.40;;;2.20;99.90;;;1.33;100.00;97010.22;5016516;28;20025;-43
2022/01/31 03:46:01;;;;;;;4.95;2.45;;;2.20;99.90;;;1.24;100.00;96994.72;5018216;28;20506;-46
2022/01/31 03:48:28;;;;;;;9.73;2.90;;;2.20;99.90;;;1.42;100.00;97045.69;5019231;28;20469;-42
2022/01/31 03:50:55;;;;;;;11.98;3.13;;;2.20;99.90;;;1.42;100.00;97060.41;5015755;28;20030;-44
2022/01/31 03:53:21;;;;;;;10.02;2.95;;;2.30;99.90;;;1.46;100.00;97062.13;5017153;28;20199;-42
2022/01/31 03:55:47;;;;;;;8.75;2.83;;;2.30;99.90;;;1.50;100.00;97049.09;5015303;28;20886;-40
2022/01/31 03:58:13;;;;;;;6.68;2.80;;;2.30;99.90;;;1.49;100.00;97047.38;5015965;28;20077;-44
2022/01/31 04:00:39;;;;;;;7.10;2.90;;;2.30;99.90;;;1.53;100.00;97046.47;5015807;28;20033;-42
2022/01/31 04:03:05;;;;;;;9.98;2.80;;;2.40;99.90;;;1.55;100.00;97041.28;5015773;28;20103;-47
2022/01/31 04:05:31;;;;;;;10.05;3.17;;;2.40;99.90;;;1.58;100.00;97037.78;5018028;28;20034;-42
2022/01/31 04:07:58;;;;;;;8.25;2.65;;;2.40;99.90;;;1.63;100.00;97036.00;5015842;28;20765;-46
2022/01/31 04:10:25;;;;;;;10.77;2.83;;;2.40;99.90;;;1.63;100.00;97031.66;5015573;28;20376;-41
2022/01/31 04:12:51;;;;;;;8.48;2.80;;;2.50;99.90;;;1.69;100.00;97033.38;5017552;28;20612;-45
2022/01/31 04:15:17;;;;;;;8.18;2.60;;;2.50;99.90;;;1.74;100.00;97026.38;5014864;28;20025;-45
2022/01/31 04:17:43;;;;;;;8.18;2.97;;;2.50;99.90;;;1.73;100.00;97023.81;5013180;28;20542;-39
2022/01/31 04:20:09;;;;;;;9.43;2.67;;;2.60;99.90;;;1.78;100.00;97020.31;5018079;28;20068;-41
2022/01/31 04:22:43;;;;;;;8.05;2.90;;;2.60;99.90;;;1.78;100.00;97017.72;5013378;28;20385;-43
2022/01/31 04:25:17;;;;;;;6.32;2.72;;;2.60;99.90;;;1.80;100.00;97010.75;5015174;28;20037;-45
2022/01/31 04:27:50;;;;;;;7.20;2.42;;;2.60;99.90;;;1.83;100.00;97009.84;5011771;28;20037;-44
2022/01/31 04:30:16;;;;;;;10.55;2.75;;;2.70;99.90;;;1.86;100.00;96997.69;5014993;28;20034;-45
2022/01/31 04:32:42;;;;;;;7.65;2.58;;;2.70;99.90;;;1.83;100.00;96996.84;5014264;28;20491;-44
2022/01/31 04:35:08;;;;;;;7.78;2.53;;;2.70;99.90;;;1.92;100.00;96996.78;5011392;28;20136;-45
2022/01/31 04:37:33;;;;;;;8.50;2.03;;;2.70;99.90;;;1.94;99.81;96986.34;5014093;28;20021;-45
2022/01/31 04:39:59;;;;;;;9.90;2.65;;;2.70;99.90;;;1.97;99.50;96981.13;5015219;28;20064;-43
2022/01/31 04:42:25;;;;;;;8.82;2.55;;;2.80;99.90;;;2.03;99.07;96970.69;5016523;28;20029;-45
2022/01/31 04:44:53;;;;;;;4.88;2.20;;;2.80;99.90;;;2.05;99.04;96959.38;5015760;28;20034;-46
2022/01/31 04:47:19;;;;;;;11.10;2.42;;;2.90;99.90;;;2.12;99.24;96959.28;5016580;28;20060;-47
2022/01/31 04:49:45;;;;;;;10.18;2.75;;;2.90;99.90;;;2.15;98.34;96943.66;5016070;28;20040;-45
2022/01/31 04:52:11;;;;;;;10.68;2.33;;;2.90;99.90;;;2.15;97.87;96928.03;5015992;28;20578;-44
2022/01/31 04:54:36;;;;;;;14.82;2.97;;;2.90;99.90;;;2.16;98.08;96912.44;5015197;28;20500;-46
2022/01/31 04:57:02;;;;;;;13.60;2.95;;;3.00;99.90;;;2.19;98.29;96895.91;5014949;28;20060;-41
2022/01/31 04:59:44;;;;;;;8.15;2.33;;;3.00;99.90;;;2.08;97.57;96862.22;5048848;23;20493;-87
2022/01/31 05:02:13;;;;;;;10.55;3.33;;;3.00;99.90;;;1.98;97.30;96838.06;5002738;28;20528;-86
2022/01/31 05:04:38;;;;;;;6.88;2.78;;;3.10;99.90;;;1.65;96.79;96764.81;4989287;28;20117;-88
2022/01/31 05:07:17;;;;;;;9.75;2.75;;;3.10;99.90;;;1.72;96.78;96768.16;5002258;28;20112;-88
2022/01/31 05:09:44;;;;;;;8.25;2.90;;;3.20;99.90;;;1.64;96.62;96738.81;4988041;28;20049;-88
2022/01/31 05:12:26;;;;;;;11.20;2.35;;;3.20;99.90;;;1.84;96.93;96736.81;5010520;28;20037;-88
2022/01/31 05:14:52;;;;;;;9.00;2.90;;;3.20;99.90;;;2.28;96.47;96816.00;5004838;28;20025;-88
2022/01/31 05:17:37;;;;;;;10.68;2.55;;;3.20;99.90;;;2.00;96.57;96750.47;5024541;28;20443;-89
2022/01/31 05:20:05;;;;;;;6.25;2.30;;;3.20;99.90;;;1.83;96.41;96700.44;5017097;28;20033;-88
2022/01/31 05:22:37;;;;;;;6.50;2.55;;;3.20;99.90;;;1.80;96.66;96674.50;4993851;28;20033;-89
2022/01/31 05:29:26;;;;;;;6.80;2.10;;;3.30;99.90;;;2.52;96.25;96771.44;5030208;28;20095;-89
2022/01/31 05:32:32;;;;;;;6.63;2.75;;;3.30;99.90;;;2.52;95.94;96772.31;4995110;28;20045;-89
2022/01/31 05:35:06;;;;;;;10.98;2.75;;;3.30;99.90;;;2.29;95.30;96723.19;4996123;28;20037;-90
2022/01/31 05:38:28;;;;;;;7.00;2.42;;;3.40;99.90;;;1.95;95.29;96666.47;4994652;28;20116;-89
2022/01/31 05:40:54;;;;;;;10.95;2.30;;;3.40;99.90;;;2.39;95.30;96719.56;4910156;29;20575;-89
2022/01/31 05:44:09;;;;;;;6.93;2.10;;;3.40;99.90;;;2.02;94.87;96652.50;4893489;29;20044;-89
2022/01/31 05:46:35;;;;;;;8.00;2.33;;;3.50;99.90;;;2.40;95.27;96686.59;4854418;29;20526;-89
2022/01/31 05:49:11;;;;;;;10.10;2.58;;;3.50;99.90;;;2.28;94.40;96654.69;4843511;29;20128;-90
2022/01/31 05:56:14;;;;;;;10.05;2.60;;;3.60;99.90;;;2.14;93.66;96593.38;5019042;28;20045;-89
2022/01/31 06:01:48;;;;;;;8.82;2.70;;;3.80;99.90;;;2.38;93.96;96608.56;5080106;23;20496;-91
2022/01/31 06:10:53;;;;;;;7.63;2.67;;;3.80;99.90;;;2.92;95.84;96677.03;5279644;22;20225;-49
2022/01/31 06:13:28;;;;;;;6.75;2.50;;;3.80;99.90;;;2.93;96.74;96669.19;5032198;28;20100;-42
2022/01/31 06:15:54;;;;;;;9.73;3.20;;;3.80;99.90;;;2.96;96.64;96666.56;5030035;28;20060;-44
2022/01/31 06:18:20;;;;;;;10.50;2.78;;;3.80;99.90;;;2.96;97.39;96655.25;5035764;28;20286;-44
2022/01/31 06:20:46;;;;;;;11.98;2.90;;;3.70;99.90;;;2.91;99.48;96655.34;5034789;28;20143;-44
2022/01/31 06:23:12;;;;;;;7.35;2.60;;;3.70;99.90;;;2.91;100.00;96659.69;5031323;28;20032;-48
2022/01/31 06:25:39;;;;;;;12.75;2.83;;;3.70;99.90;;;2.83;100.00;96654.63;5033891;28;20045;-44
2022/01/31 06:28:06;;;;;;;12.40;3.28;;;3.70;99.90;;;2.80;100.00;96652.06;5037539;28;20186;-41
2022/01/31 06:30:36;;;;;;;10.20;2.85;;;3.60;99.90;;;2.76;100.00;96650.41;5035798;28;20041;-42
2022/01/31 06:33:02;;;;;;;11.63;2.75;;;3.60;99.90;;;2.72;100.00;96649.63;5037284;28;20442;-45
2022/01/31 06:35:28;;;;;;;8.30;2.65;;;3.60;99.90;;;2.77;100.00;96647.78;5034830;28;20040;-40
2022/01/31 06:37:54;;;;;;;12.15;2.80;;;3.50;99.90;;;2.62;100.00;96633.31;5029113;28;20713;-42
2022/01/31 06:40:20;;;;;;;9.50;2.70;;;3.50;99.90;;;2.62;100.00;96640.25;5037082;28;20123;-40
2022/01/31 06:42:46;;;;;;;8.60;2.65;;;3.50;99.90;;;2.59;100.00;96630.75;5033668;28;20064;-46
2022/01/31 06:45:12;;;;;;;13.82;2.97;;;3.40;99.90;;;2.60;100.00;96629.88;5034092;28;23186;-47
2022/01/31 06:47:38;;;;;;;13.23;3.13;;;3.40;99.90;;;2.53;100.00;96636.06;5028228;28;20486;-45
2022/01/31 06:50:06;;;;;;;8.68;2.88;;;3.30;99.90;;;2.42;100.00;96632.78;5034078;28;20522;-47
2022/01/31 06:52:35;;;;;;;7.55;2.72;;;3.30;99.90;;;2.41;100.00;96629.31;5037004;28;20029;-46
2022/01/31 06:55:05;;;;;;;13.25;2.80;;;3.20;99.90;;;2.41;100.00;96636.28;5029063;28;20502;-44
2022/01/31 06:57:35;;;;;;;9.65;2.75;;;3.20;99.90;;;2.37;100.00;96640.69;5031669;28;20238;-41
2022/01/31 07:00:05;;;;;;;16.10;3.28;;;3.20;99.90;;;2.40;100.00;96656.22;5036041;28;20070;-53
2022/01/31 07:02:31;;;;;;;12.07;2.95;;;3.20;99.90;;;2.42;100.00;96645.78;5032981;28;20065;-53
2022/01/31 07:04:57;;;;;;;11.82;2.95;;;3.20;99.90;;;2.35;100.00;96649.38;5049108;28;20518;-52
2022/01/31 07:07:22;;;;;;;8.23;3.17;;;3.20;99.90;;;2.37;100.00;96653.69;5039158;28;20039;-51
2022/01/31 07:09:48;;;;;;;12.60;2.92;;;3.20;99.90;;;2.32;100.00;96658.09;5035550;28;20062;-52
2022/01/31 07:12:16;;;;;;;7.07;2.60;;;3.20;99.90;;;2.36;100.00;96657.16;5036798;28;20489;-47
2022/01/31 07:14:42;;;;;;;8.88;2.45;;;3.20;99.90;;;2.31;100.00;96661.59;5034178;28;20494;-49
2022/01/31 07:17:08;;;;;;;10.07;3.00;;;3.20;99.90;;;2.24;100.00;96646.94;5037369;28;20056;-51
2022/01/31 07:19:37;;;;;;;14.55;4.15;;;3.10;99.90;;;2.27;100.00;96654.72;5035857;28;20025;-51
2022/01/31 07:22:07;;;;;;;8.35;3.08;;;3.10;99.90;;;2.36;100.00;96640.69;5033231;28;20024;-51
2022/01/31 07:27:03;;;;;;;8.48;2.88;;;3.10;99.90;;;2.38;100.00;96650.19;5031045;28;20033;-52
2022/01/31 07:29:29;;;;;;;11.73;2.83;;;3.10;99.90;;;2.26;100.00;96653.88;5033804;28;20108;-49
2022/01/31 07:31:57;;;;;;;9.93;3.30;;;3.10;99.90;;;2.26;100.00;96651.25;5032867;28;20442;-52
2022/01/31 07:34:23;;;;;;;9.85;2.58;;;3.10;99.90;;;2.22;100.00;96654.78;5039935;28;20027;-49
2022/01/31 07:36:49;;;;;;;10.00;2.42;;;3.10;99.90;;;2.20;100.00;96656.53;5035549;28;20036;-53
2022/01/31 07:39:17;;;;;;;6.50;2.20;;;3.00;99.90;;;2.25;100.00;96659.09;5033971;28;20037;-50
2022/01/31 07:41:44;;;;;;;7.15;2.08;;;3.10;99.90;;;2.29;100.00;96646.00;5033452;28;20041;-52
2022/01/31 07:44:10;;;;;;;8.85;2.33;;;3.10;99.90;;;2.27;100.00;96650.38;5025887;28;20029;-51
2022/01/31 07:46:36;;;;;;;10.73;2.20;;;3.10;99.90;;;2.28;100.00;96675.50;5031971;28;20037;-51
2022/01/31 07:49:04;;;;;;;7.30;2.22;;;3.10;99.90;;;2.25;100.00;96685.09;5035201;28;20465;-52
2022/01/31 07:51:29;;;;;;;5.18;1.83;;;3.10;99.90;;;2.28;100.00;96682.47;5035032;28;20414;-50
2022/01/31 07:53:55;;;;;;;5.50;2.10;;;3.10;99.90;;;2.27;100.00;96681.59;5033170;28;20027;-50
2022/01/31 07:56:21;;;;;;;7.90;2.05;;;3.10;99.90;;;2.23;100.00;96669.50;5032252;28;20533;-54
2022/01/31 07:58:47;;;;;;;6.63;2.20;;;3.10;99.90;;;2.26;100.00;96672.06;5030975;28;20512;-51
2022/01/31 08:01:13;;;;;;;3.88;1.52;;;3.10;99.90;;;2.33;100.00;96690.19;5032821;28;20063;-53
2022/01/31 08:03:39;;;;;;;6.55;1.63;;;3.20;99.90;;;2.46;100.00;96684.75;5026286;28;20035;-53
2022/01/31 08:06:05;;;;;;;3.65;1.70;;;3.20;99.90;;;2.39;100.00;96687.50;5030188;28;20098;-51
2022/01/31 08:08:31;;;;;;;4.53;1.75;;;3.20;99.90;;;2.28;100.00;96661.66;5034060;28;20039;-51
2022/01/31 08:10:59;;;;;;;4.85;1.42;;;3.20;99.90;;;2.39;100.00;96683.16;5033351;28;20060;-51
2022/01/31 08:13:25;;;;;;;3.17;1.42;;;3.20;99.90;;;2.40;100.00;96684.84;5031630;28;20403;-50
2022/01/31 08:18:35;;;;;;;2.72;1.30;;;3.30;99.90;;;2.44;100.00;96685.66;5034587;28;20479;-50
2022/01/31 08:21:03;;;;;;;3.03;1.52;;;3.30;99.90;;;2.45;100.00;96684.78;5032212;28;20485;-53
2022/01/31 08:23:30;;;;;;;4.03;1.40;;;3.30;99.90;;;2.51;100.00;96702.88;5034087;28;20076;-49
2022/01/31 08:25:59;;;;;;;1.92;1.08;;;3.40;99.90;;;2.57;100.00;96708.00;5027255;28;20083;-50
2022/01/31 08:28:33;;;;;;;6.32;1.40;;;3.40;99.90;;;2.56;100.00;96692.41;5032667;28;20094;-49
2022/01/31 08:31:06;;;;;;;5.88;1.13;;;3.40;99.90;;;2.55;100.00;96686.38;5031050;28;20140;-52
2022/01/31 08:36:03;;;;;;;1.13;0.70;;;3.50;99.90;;;2.72;100.00;96706.03;5032505;28;20120;-51
2022/01/31 08:38:29;;;;;;;1.80;0.93;;;3.60;99.90;;;2.81;100.00;96711.09;5019990;28;20056;-50
2022/01/31 08:40:55;;;;;;;2.85;0.80;;;3.70;99.90;;;2.86;100.00;96706.66;5030315;28;20036;-54
2022/01/31 08:43:21;;;;;;;2.17;0.80;;;3.70;99.90;;;2.80;100.00;96694.63;5034710;28;20068;-52
2022/01/31 08:45:49;;;;;;;1.27;0.70;;;3.70;99.90;;;2.89;100.00;96716.16;5026555;28;20251;-50
2022/01/31 08:48:14;;;;;;;1.17;0.80;;;3.70;99.90;;;2.88;100.00;96696.22;5033036;28;20029;-48
2022/01/31 08:50:40;;;;;;;2.70;0.80;;;3.70;99.90;;;2.85;100.00;96700.59;5035787;28;20036;-50
2022/01/31 08:53:06;;;;;;;3.85;0.85;;;3.80;99.90;;;2.94;100.00;96691.75;5034867;28;20053;-50
2022/01/31 08:55:32;;;;;;;10.45;2.05;;;3.80;99.90;;;2.98;100.00;96698.63;5028553;28;20072;-53
2022/01/31 08:57:58;;;;;;;2.42;1.08;;;3.80;99.90;;;3.05;100.00;96682.00;5032221;28;20040;-49
2022/01/31 09:00:33;;;;;;;2.55;0.80;;;4.00;99.90;;;3.22;100.00;96693.84;5034842;28;20036;-50
2022/01/31 09:05:52;;;;;;;1.58;0.88;;;4.20;99.90;;;3.38;100.00;96669.19;5004633;28;20365;-51
2022/01/31 09:08:18;;;;;;;3.50;0.85;;;4.20;99.90;;;3.40;100.00;96679.59;5028655;28;20100;-50
2022/01/31 09:10:44;;;;;;;1.70;1.00;;;4.30;99.90;;;3.46;100.00;96673.41;5028712;28;20079;-48
2022/01/31 09:13:13;;;;;;;2.67;0.77;;;4.30;99.90;;;3.59;100.00;96669.66;5031387;28;20039;-48
2022/01/31 09:15:40;;;;;;;1.80;1.05;;;4.50;99.90;;;3.77;100.00;96642.34;5026309;28;20040;-49
2022/01/31 09:18:07;;;;;;;2.05;0.88;;;4.70;99.90;;;3.88;100.00;96657.75;5031773;28;20021;-47
2022/01/31 09:20:33;;;;;;;3.75;1.10;;;4.70;99.90;;;3.87;100.00;96651.66;5032666;28;20053;-50
2022/01/31 09:22:59;;;;;;;2.75;0.95;;;4.80;99.90;;;4.08;100.00;96644.25;5036388;28;20470;-51
2022/01/31 09:25:27;;;;;;;2.28;0.98;;;5.00;99.90;;;4.15;100.00;96658.88;5033711;28;20034;-48
2022/01/31 09:27:53;;;;;;;3.10;0.95;;;5.10;99.90;;;4.37;100.00;96654.81;5031291;28;20033;-51
2022/01/31 09:30:21;;;;;;;1.30;0.80;;;5.30;99.90;;;4.52;99.17;96669.28;5030009;28;20078;-52
2022/01/31 09:32:48;;;;;;;2.58;1.10;;;5.40;99.90;;;4.55;99.27;96670.94;5031487;28;20789;-50
2022/01/31 09:35:13;;;;;;;6.30;1.10;;;5.50;99.90;;;4.77;100.00;96673.88;5031256;28;20025;-51
2022/01/31 09:37:39;;;;;;;1.88;0.88;;;5.70;99.90;;;4.86;97.99;96681.47;5019932;28;20037;-47
2022/01/31 09:40:06;;;;;;;2.95;0.98;;;5.80;99.90;;;4.96;98.67;96688.19;5030557;28;20075;-52
2022/01/31 09:42:59;;;;;;;2.13;1.00;;;5.80;99.90;;;5.08;98.15;96662.59;5029052;28;20585;-49
2022/01/31 09:45:35;;;;;;;2.72;1.23;;;6.00;99.90;;;5.09;94.65;96680.88;5033285;28;20057;-52
2022/01/31 09:50:29;;;;;;;4.72;1.42;;;6.20;99.90;;;5.28;89.99;96693.47;5030130;28;20053;-51
2022/01/31 09:52:55;;;;;;;4.20;1.40;;;6.20;99.90;;;5.15;91.64;96678.09;5033145;28;20033;-50
2022/01/31 09:55:22;;;;;;;2.83;1.00;;;6.10;99.90;;;4.85;90.92;96663.25;5030806;28;20025;-52
2022/01/31 09:57:48;;;;;;;2.45;1.08;;;5.90;99.90;;;4.91;93.03;96666.53;5035196;28;20025;-49
2022/01/31 10:00:15;;;;;;;2.13;1.13;;;5.70;99.90;;;4.57;92.46;96662.16;5036511;28;20017;-51
2022/01/31 10:03:04;;;;;;;1.95;1.05;;;5.60;99.90;;;4.45;92.69;96651.16;5031414;28;20059;-52
2022/01/31 10:05:30;;;;;;;2.63;1.02;;;5.40;99.90;;;4.51;95.38;96667.56;5029600;28;20036;-52
2022/01/31 10:08:16;;;;;;;1.70;0.73;;;5.30;99.90;;;4.33;95.25;96668.00;5035485;28;20040;-48
2022/01/31 10:10:48;;;;;;;3.63;1.17;;;5.20;99.90;;;4.21;97.66;96677.81;5035310;28;20047;-53
2022/01/31 10:16:26;;;;;;;6.30;1.30;;;5.10;99.90;;;4.31;96.63;96677.63;5032389;28;20135;-50
2022/01/31 10:19:08;;;;;;;4.47;1.30;;;5.20;99.90;;;4.35;95.32;96677.50;5031515;28;20048;-52
2022/01/31 10:22:03;;;;;;;6.50;1.23;;;5.20;99.90;;;4.44;96.56;96688.63;5036277;28;20427;-50
2022/01/31 10:24:31;;;;;;;4.22;1.50;;;5.30;99.90;;;4.38;92.24;96677.44;5029737;28;20936;-52
2022/01/31 10:27:17;;;;;;;5.60;1.20;;;5.20;99.90;;;4.45;92.14;96677.28;5031863;28;20033;-51
2022/01/31 10:29:49;;;;;;;1.98;0.88;;;5.30;99.90;;;4.42;92.25;96661.72;5032599;28;20441;-50
2022/01/31 10:32:29;;;;;;;3.97;1.15;;;5.30;99.90;;;4.43;91.22;96664.25;5034420;28;20037;-50
2022/01/31 10:35:02;;;;;;;5.65;1.77;;;5.30;99.90;;;4.51;94.53;96651.88;5032759;28;20444;-49
2022/01/31 10:37:31;;;;;;;2.85;0.90;;;5.40;99.90;;;4.57;89.82;96650.88;5027201;28;20029;-51
2022/01/31 10:51:56;;;;;;;4.35;1.00;;;5.40;99.90;;;4.65;87.94;96638.50;5037956;28;20058;-52
2022/01/31 10:57:02;;;;;;;4.25;1.60;;;5.60;99.90;;;4.83;86.77;96637.16;5034684;28;20143;-48
2022/01/31 10:59:34;;;;;;;3.15;1.13;;;5.60;99.90;;;4.76;87.76;96631.22;5052042;23;20131;-38
2022/01/31 11:02:05;;;;;;;6.32;1.27;;;5.60;99.90;;;4.72;88.32;96616.53;5016996;28;20413;-37
2022/01/31 11:04:39;;;;;;;5.03;1.30;;;5.60;99.90;;;4.69;87.35;96619.22;5015852;28;20501;-35
2022/01/31 11:07:13;;;;;;;6.32;1.63;;;5.50;99.90;;;4.71;91.32;96624.41;5013260;28;20057;-38
2022/01/31 11:09:41;;;;;;;4.80;1.17;;;5.60;99.90;;;4.74;91.13;96616.50;5034449;28;20406;-37
2022/01/31 11:12:09;;;;;;;5.18;1.23;;;5.60;99.90;;;4.81;90.07;96619.78;5036833;28;20041;-37
2022/01/31 11:14:41;;;;;;;3.25;1.45;;;5.60;99.90;;;4.86;88.91;96608.31;5037052;28;20176;-37
2022/01/31 11:17:10;;;;;;;4.38;1.25;;;5.70;99.90;;;5.00;88.61;96609.72;5032563;28;20033;-36
2022/01/31 11:19:42;;;;;;;3.10;1.05;;;5.80;99.90;;;5.24;88.67;96610.78;5036863;28;20746;-35
2022/01/31 11:22:16;;;;;;;4.97;1.20;;;6.10;99.90;;;5.35;88.94;96604.34;5039012;28;20033;-35
2022/01/31 11:24:48;;;;;;;6.18;1.33;;;6.20;99.90;;;5.40;86.28;96606.84;5036602;28;20033;-35